Terminal Aerodrome Forecast
Issued by NWS Wilmington, OH

Home | Current Version | Previous Version | Text Only | Print | Product List | Glossary On
Versions: 1 2 3 4 5 6 7 8 9 10 11 12 13 14 15 16 17 18 19
000
FTUS41 KILN 281700 AAA
TAFILN
TAF AMD
KILN 281752Z 2818/0118 10005KT P6SM BKN100
     FM282200 10007KT P6SM SCT025 BKN060
     FM010200 12005KT P6SM -SN BKN025 OVC040
      TEMPO 0105/0109 1SM -SN OVC012
     FM010900 14005KT 1SM -SN SCT012 OVC025
      TEMPO 0111/0113 2SM -FZRASNPL OVC009
     FM011300 24006KT 3SM -RA OVC015
      TEMPO 0115/0118 1SM -SNRA OVC008=

USA.gov is the U.S. government's official web portal to all federal, state and local government web resources and services.